KHUM/HUM METAR and TAF weather

Enter ICAO airport designator
Station Type Date Time Source
KHUM METAR 2021/08/04 22:50 UTC NOAA

KHUM 042250Z 02011KT 7SM SCT040 31/23 A2995


Station Type Date Time Source
KHUM Decoded METAR 2021/08/04 22:50 UTC NOAA

Houma-Terrebonne, LA, United States (KHUM) 29-34N 090-40W
Aug 04, 2021 - 06:50 PM EDT / 2021.08.04 2250 UTC
Wind: from the NNE (020 degrees) at 13 MPH (11 KT):0
Visibility: 7 mile(s):0
Sky conditions: partly cloudy
Temperature: 87 F (31 C)
Heat index: 93.9 F (34.4 C):1
Dew Point: 73 F (23 C)
Relative Humidity: 62%
Pressure (altimeter): 29.95 in. Hg (1014 hPa)
ob: KHUM 042250Z 02011KT 7SM SCT040 31/23 A2995
cycle: 23

Station Type Date Time Source
KHUM TAF 2021/08/04 18:22 UTC NOAA

TAF KHUM 041720Z 0418/0518 01006KT P6SM VCTS OVC045CB
FM041900 02007KT P6SM VCTS BKN060CB
FM050000 VRB04KT P6SM SCT250

Example: see airport list